createdAt,value
2023-03-04T00:02:43.693Z,17.40
2023-03-04T00:05:10.794Z,17.80
2023-03-04T00:07:37.658Z,18.20
2023-03-04T00:10:06.636Z,17.00
2023-03-04T00:12:37.336Z,19.40
2023-03-04T00:15:04.620Z,16.00
2023-03-04T00:17:33.414Z,20.60
2023-03-04T00:20:00.556Z,20.40
2023-03-04T00:22:27.329Z,19.40
2023-03-04T00:24:54.242Z,19.60
2023-03-04T00:27:21.393Z,16.30
2023-03-04T00:29:48.447Z,17.10
2023-03-04T00:32:17.750Z,16.50
2023-03-04T00:34:44.598Z,16.80
2023-03-04T00:37:11.325Z,19.90
2023-03-04T00:39:38.153Z,19.20
2023-03-04T00:42:05.372Z,18.10
2023-03-04T00:44:32.255Z,16.30
2023-03-04T00:46:59.084Z,17.90
2023-03-04T00:49:25.946Z,19.90
2023-03-04T00:51:52.838Z,17.60
2023-03-04T00:54:24.281Z,19.20
2023-03-04T00:56:51.312Z,18.80
2023-03-04T00:59:18.196Z,14.50
2023-03-04T01:01:45.047Z,23.00
2023-03-04T01:04:13.659Z,21.00
2023-03-04T01:06:41.627Z,18.90
2023-03-04T01:09:08.886Z,17.40
2023-03-04T01:11:39.305Z,15.30
2023-03-04T01:14:06.049Z,17.20
2023-03-04T01:16:32.948Z,18.20
2023-03-04T01:18:59.937Z,15.40
2023-03-04T01:21:26.989Z,15.60
2023-03-04T01:23:57.313Z,15.70
2023-03-04T01:26:24.569Z,17.30
2023-03-04T01:28:51.608Z,13.20
2023-03-04T01:31:18.603Z,16.40
2023-03-04T01:33:45.707Z,14.70
2023-03-04T01:36:12.651Z,16.70
2023-03-04T01:38:40.519Z,17.20
2023-03-04T01:41:08.281Z,17.50
2023-03-04T01:43:37.585Z,17.90
2023-03-04T01:46:04.786Z,16.70
2023-03-04T01:48:36.874Z,17.80
2023-03-04T01:51:04.862Z,14.80
2023-03-04T01:53:32.329Z,14.20
2023-03-04T01:56:15.558Z,16.80
2023-03-04T01:58:45.065Z,16.30
2023-03-04T02:01:12.088Z,16.50
2023-03-04T02:03:39.363Z,16.70
2023-03-04T02:06:06.194Z,21.10
2023-03-04T02:08:33.973Z,18.00
2023-03-04T02:11:01.705Z,17.10
2023-03-04T02:13:29.397Z,21.10
2023-03-04T02:15:56.602Z,20.50
2023-03-04T02:18:23.632Z,22.40
2023-03-04T02:20:56.388Z,18.00
2023-03-04T02:23:30.009Z,19.60
2023-03-04T02:26:15.459Z,17.70
2023-03-04T02:28:43.659Z,17.80
2023-03-04T02:31:20.153Z,16.00
2023-03-04T02:33:47.496Z,21.00
2023-03-04T02:36:14.311Z,17.60
2023-03-04T02:38:41.353Z,17.20
2023-03-04T02:41:14.095Z,25.40
2023-03-04T02:43:44.557Z,21.20
2023-03-04T02:46:12.459Z,22.80
2023-03-04T02:48:42.032Z,20.70
2023-03-04T02:51:08.876Z,27.50
2023-03-04T02:53:38.459Z,21.60
2023-03-04T02:56:06.251Z,18.40
2023-03-04T02:58:35.344Z,19.00
2023-03-04T03:01:05.777Z,22.70
2023-03-04T03:03:32.848Z,17.30
2023-03-04T03:05:59.866Z,14.70
2023-03-04T03:08:26.711Z,17.40
2023-03-04T03:10:55.093Z,21.90
2023-03-04T03:13:22.445Z,21.80
2023-03-04T03:15:55.281Z,22.70
2023-03-04T03:18:23.914Z,27.70
2023-03-04T03:20:50.754Z,22.20
2023-03-04T03:23:18.008Z,19.60
2023-03-04T03:25:44.877Z,18.30
2023-03-04T03:28:12.004Z,22.80
2023-03-04T03:30:38.942Z,16.20
2023-03-04T03:33:06.708Z,21.70
2023-03-04T03:35:33.858Z,20.10
2023-03-04T03:38:00.558Z,19.40
2023-03-04T03:40:27.580Z,24.60
2023-03-04T03:42:54.564Z,19.50
2023-03-04T03:45:21.642Z,18.50
2023-03-04T03:47:48.724Z,21.30
2023-03-04T03:50:15.926Z,22.50
2023-03-04T03:52:42.883Z,19.80
2023-03-04T03:55:09.933Z,21.50
2023-03-04T03:57:37.371Z,21.70
2023-03-04T04:00:05.385Z,19.20
2023-03-04T04:02:43.084Z,22.80
2023-03-04T04:05:10.358Z,16.60
2023-03-04T04:07:37.164Z,19.30
2023-03-04T04:10:08.227Z,17.10
2023-03-04T04:12:35.086Z,22.00
2023-03-04T04:15:01.884Z,24.20
2023-03-04T04:17:29.234Z,21.20
2023-03-04T04:19:56.077Z,19.90
2023-03-04T04:22:22.904Z,20.30
2023-03-04T04:24:49.668Z,22.70
2023-03-04T04:27:18.043Z,21.20
2023-03-04T04:29:44.816Z,23.20
2023-03-04T04:32:12.766Z,20.70
2023-03-04T04:34:39.780Z,17.90
2023-03-04T04:37:06.497Z,21.10
2023-03-04T04:39:40.267Z,17.50
2023-03-04T04:42:09.434Z,19.40
2023-03-04T04:44:38.294Z,17.20
2023-03-04T04:47:06.912Z,18.10
2023-03-04T04:49:33.756Z,22.60
2023-03-04T04:52:01.039Z,17.90
2023-03-04T04:54:28.357Z,20.50
2023-03-04T04:56:56.944Z,23.10
2023-03-04T04:59:23.893Z,19.60
2023-03-04T05:01:52.267Z,18.50
2023-03-04T05:04:19.219Z,19.10
2023-03-04T05:06:45.860Z,34.60
2023-03-04T05:09:13.343Z,24.80
2023-03-04T05:11:40.430Z,18.50
2023-03-04T05:14:10.277Z,32.90
2023-03-04T05:16:37.763Z,15.70
2023-03-04T05:19:04.577Z,18.10
2023-03-04T05:21:31.751Z,17.50
2023-03-04T05:23:59.289Z,17.70
2023-03-04T05:26:28.695Z,16.00
2023-03-04T05:28:55.647Z,21.70
2023-03-04T05:31:22.739Z,19.10
2023-03-04T05:33:49.748Z,19.70
2023-03-04T05:36:16.790Z,19.80
2023-03-04T05:38:43.675Z,16.80
2023-03-04T05:41:10.878Z,21.50
2023-03-04T05:43:42.229Z,16.30
2023-03-04T05:46:13.138Z,20.10
2023-03-04T05:48:39.909Z,21.20
2023-03-04T05:51:07.056Z,20.60
2023-03-04T05:53:36.585Z,20.60
2023-03-04T05:56:10.358Z,15.00
2023-03-04T05:58:38.471Z,13.70
2023-03-04T06:01:10.092Z,13.90
2023-03-04T06:03:37.291Z,14.10
2023-03-04T06:06:05.008Z,32.70
2023-03-04T06:08:34.903Z,14.10
2023-03-04T06:11:02.232Z,11.50
2023-03-04T06:13:33.835Z,16.90
2023-03-04T06:16:01.287Z,17.30
2023-03-04T06:18:28.872Z,18.30
2023-03-04T06:21:00.193Z,21.40
2023-03-04T06:23:27.150Z,14.40
2023-03-04T06:25:54.804Z,17.80
2023-03-04T06:28:22.264Z,31.20
2023-03-04T06:30:51.712Z,19.00
2023-03-04T06:33:22.165Z,19.30
2023-03-04T06:35:54.142Z,21.60
2023-03-04T06:38:20.895Z,35.00
2023-03-04T06:40:47.947Z,16.00
2023-03-04T06:43:14.995Z,18.80
2023-03-04T06:45:41.934Z,23.00
2023-03-04T06:48:09.596Z,17.70
2023-03-04T06:50:36.914Z,33.30
2023-03-04T06:53:04.102Z,19.60
2023-03-04T06:55:35.561Z,19.30
2023-03-04T06:58:02.703Z,20.10
2023-03-04T07:00:29.912Z,33.00
2023-03-04T07:02:58.345Z,20.90
2023-03-04T07:05:25.240Z,23.60
2023-03-04T07:07:52.438Z,18.50
2023-03-04T07:10:21.217Z,40.40
2023-03-04T07:12:48.191Z,21.80
2023-03-04T07:15:15.007Z,35.80
2023-03-04T07:17:43.493Z,14.90
2023-03-04T07:20:11.146Z,25.10
2023-03-04T07:22:38.308Z,39.70
2023-03-04T07:25:06.103Z,19.70
2023-03-04T07:27:38.261Z,26.40
2023-03-04T07:30:06.564Z,22.80
2023-03-04T07:32:35.241Z,22.40
2023-03-04T07:35:03.421Z,21.20
2023-03-04T07:37:30.419Z,35.80
2023-03-04T07:39:57.315Z,43.70
2023-03-04T07:42:24.211Z,21.00
2023-03-04T07:44:59.140Z,42.10
2023-03-04T07:47:27.096Z,26.20
2023-03-04T07:49:55.529Z,24.50
2023-03-04T07:52:22.373Z,27.30
2023-03-04T07:54:49.304Z,24.40
2023-03-04T07:57:16.598Z,42.80
2023-03-04T07:59:43.684Z,22.30
2023-03-04T08:02:10.873Z,41.30
2023-03-04T08:04:38.289Z,20.90
2023-03-04T08:07:05.026Z,28.90
2023-03-04T08:09:38.526Z,37.00
2023-03-04T08:12:05.369Z,26.80
2023-03-04T08:14:33.438Z,29.50
2023-03-04T08:17:05.710Z,36.60
2023-03-04T08:19:33.231Z,42.50
2023-03-04T08:22:00.127Z,23.20
2023-03-04T08:24:27.671Z,22.30
2023-03-04T08:26:55.332Z,22.80
2023-03-04T08:29:22.967Z,36.50
2023-03-04T08:31:51.524Z,25.70
2023-03-04T08:34:20.189Z,19.20
2023-03-04T08:36:52.054Z,24.10
2023-03-04T08:39:19.308Z,35.80
2023-03-04T08:41:46.776Z,24.40
2023-03-04T08:44:14.307Z,19.30
2023-03-04T08:46:42.163Z,17.50
2023-03-04T08:49:12.527Z,24.20
2023-03-04T08:51:40.075Z,35.50
2023-03-04T08:55:38.844Z,20.60
2023-03-04T08:58:07.335Z,21.60
2023-03-04T09:00:36.729Z,36.20
2023-03-04T09:03:24.890Z,20.30
2023-03-04T09:05:54.385Z,36.10
2023-03-04T09:08:23.466Z,23.10
2023-03-04T09:10:53.283Z,17.70
2023-03-04T09:13:26.255Z,24.70
2023-03-04T09:15:55.937Z,20.90
2023-03-04T09:18:24.566Z,37.20
2023-03-04T09:20:52.946Z,19.10
2023-03-04T09:23:22.374Z,36.30
2023-03-04T09:25:50.735Z,18.90
2023-03-04T09:28:19.643Z,22.80
2023-03-04T09:30:48.552Z,35.80
2023-03-04T09:33:17.136Z,18.50
2023-03-04T09:35:45.498Z,33.00
2023-03-04T09:38:13.956Z,24.10
2023-03-04T09:40:48.324Z,31.50
2023-03-04T09:43:24.564Z,30.70
2023-03-04T09:48:24.950Z,17.90
2023-03-04T09:51:04.861Z,21.90
2023-03-04T09:53:36.353Z,32.90
2023-03-04T09:56:05.094Z,21.50
2023-03-04T09:58:40.512Z,19.20
2023-03-04T10:01:22.733Z,34.90
2023-03-04T10:03:55.663Z,34.90
2023-03-04T10:06:24.293Z,20.00
2023-03-04T10:09:01.875Z,19.20
2023-03-04T10:11:34.552Z,15.10
2023-03-04T10:14:22.016Z,30.60
2023-03-04T10:16:53.145Z,18.00
2023-03-04T10:19:26.221Z,20.70
2023-03-04T10:21:54.603Z,18.10
2023-03-04T10:24:27.655Z,28.80
2023-03-04T10:27:01.657Z,22.50
2023-03-04T10:29:30.790Z,38.70
2023-03-04T10:31:58.871Z,21.00
2023-03-04T10:34:27.745Z,22.40
2023-03-04T10:37:07.166Z,21.50
2023-03-04T10:39:42.118Z,22.00
2023-03-04T10:42:16.988Z,25.80
2023-03-04T10:44:56.689Z,35.00
2023-03-04T10:47:26.607Z,17.30
2023-03-04T10:50:01.804Z,33.00
2023-03-04T10:52:35.917Z,16.30
2023-03-04T10:55:07.151Z,17.30
2023-03-04T10:57:39.972Z,34.00
2023-03-04T11:00:17.933Z,19.10
2023-03-04T11:02:50.056Z,15.90
2023-03-04T11:05:22.976Z,33.60
2023-03-04T11:07:57.269Z,24.70
2023-03-04T11:10:35.980Z,33.80
2023-03-04T11:13:11.564Z,18.70
2023-03-04T11:16:04.927Z,17.10
2023-03-04T11:18:46.278Z,30.40
2023-03-04T11:21:34.714Z,17.70
2023-03-04T11:24:04.870Z,18.00
2023-03-04T11:26:53.320Z,17.80
2023-03-04T11:29:34.663Z,15.40
2023-03-04T11:32:08.801Z,15.50
2023-03-04T11:34:44.734Z,25.00
2023-03-04T11:37:31.958Z,14.40
2023-03-04T11:40:07.449Z,16.80
2023-03-04T11:43:03.765Z,14.20
2023-03-04T11:45:44.650Z,15.60
2023-03-04T11:48:47.113Z,28.30
2023-03-04T11:51:23.145Z,16.50
2023-03-04T11:54:02.930Z,19.00
2023-03-04T11:56:40.166Z,15.20
2023-03-04T11:59:31.245Z,17.00
2023-03-04T12:02:25.111Z,15.40
2023-03-04T12:05:16.203Z,27.90
2023-03-04T12:07:59.940Z,25.20
2023-03-04T12:10:40.929Z,24.30
2023-03-04T12:13:26.120Z,13.00
2023-03-04T12:16:02.481Z,15.00
2023-03-04T12:18:59.509Z,15.90
2023-03-04T12:21:37.945Z,19.20
2023-03-04T12:24:11.934Z,14.40
2023-03-04T12:26:50.071Z,14.40
2023-03-04T12:30:26.161Z,16.60
2023-03-04T12:33:14.574Z,28.10
2023-03-04T12:36:23.072Z,22.90
2023-03-04T12:38:51.246Z,15.40
2023-03-04T12:41:47.381Z,22.50
2023-03-04T12:44:19.467Z,12.50
2023-03-04T12:47:11.985Z,16.30
2023-03-04T12:50:07.503Z,21.60
2023-03-04T12:52:48.070Z,10.80
2023-03-04T12:55:17.578Z,25.30
2023-03-04T12:57:46.148Z,20.20
2023-03-04T13:00:23.858Z,19.00
2023-03-04T13:02:55.282Z,20.20
2023-03-04T13:05:32.908Z,23.10
2023-03-04T13:08:40.600Z,13.80
2023-03-04T13:11:31.511Z,29.20
2023-03-04T13:14:15.033Z,22.80
2023-03-04T13:17:02.576Z,12.20
2023-03-04T13:19:43.452Z,12.90
2023-03-04T13:22:35.185Z,20.60
2023-03-04T13:25:29.147Z,15.80
2023-03-04T13:28:03.105Z,24.60
2023-03-04T13:30:31.541Z,14.50
2023-03-04T13:33:08.741Z,22.90
2023-03-04T13:35:49.422Z,23.90
2023-03-04T13:38:28.358Z,24.60
2023-03-04T13:41:06.524Z,19.60
2023-03-04T13:43:40.944Z,13.30
2023-03-04T13:46:18.440Z,20.80
2023-03-04T13:48:50.001Z,12.40
2023-03-04T13:51:46.229Z,23.30
2023-03-04T13:54:30.315Z,12.30
2023-03-04T13:57:01.239Z,22.00
2023-03-04T13:59:34.955Z,26.60
2023-03-04T14:02:15.082Z,16.70
2023-03-04T14:04:44.817Z,28.60
2023-03-04T14:07:38.068Z,17.30
2023-03-04T14:10:12.447Z,20.50
2023-03-04T14:12:45.549Z,19.40
2023-03-04T14:15:13.832Z,26.40
2023-03-04T14:17:48.719Z,14.10
2023-03-04T14:20:30.355Z,15.70
2023-03-04T14:22:59.653Z,16.80
2023-03-04T14:25:35.501Z,21.00
2023-03-04T14:28:15.250Z,14.10
2023-03-04T14:30:51.616Z,23.90
2023-03-04T14:33:27.234Z,15.00
2023-03-04T14:35:59.839Z,13.00
2023-03-04T14:38:38.367Z,23.30
2023-03-04T14:41:19.750Z,22.00
2023-03-04T14:43:56.260Z,13.20
2023-03-04T14:46:25.508Z,13.20
2023-03-04T14:48:53.996Z,23.90
2023-03-04T14:51:41.850Z,15.20
2023-03-04T14:54:40.847Z,16.20
2023-03-04T14:57:27.357Z,24.40
2023-03-04T14:59:56.224Z,15.00
2023-03-04T15:02:31.655Z,22.70
2023-03-04T15:05:16.410Z,15.20
2023-03-04T15:07:53.673Z,16.20
2023-03-04T15:10:27.119Z,18.20
2023-03-04T15:12:57.340Z,16.60
2023-03-04T15:15:37.856Z,22.90
2023-03-04T15:18:17.146Z,16.00
2023-03-04T15:20:55.778Z,14.00
2023-03-04T15:23:24.552Z,17.30
2023-03-04T15:25:54.923Z,24.20
2023-03-04T15:28:23.757Z,16.50
2023-03-04T15:30:52.385Z,11.40
2023-03-04T15:33:21.534Z,24.40
2023-03-04T15:36:12.651Z,14.70
2023-03-04T15:38:53.016Z,13.70
2023-03-04T15:41:25.608Z,11.30
2023-03-04T15:43:54.590Z,12.90
2023-03-04T15:46:23.021Z,14.20
2023-03-04T15:48:51.643Z,14.40
2023-03-04T15:51:24.024Z,26.40
2023-03-04T15:53:56.666Z,19.00
2023-03-04T15:56:29.899Z,15.40
2023-03-04T15:59:14.252Z,17.00
2023-03-04T16:01:42.327Z,15.20
2023-03-04T16:04:16.058Z,20.00
2023-03-04T16:06:45.431Z,15.10
2023-03-04T16:09:14.826Z,13.40
2023-03-04T16:11:46.608Z,18.80
2023-03-04T16:14:15.782Z,12.60
2023-03-04T16:16:44.567Z,12.80
2023-03-04T16:19:13.258Z,13.90
2023-03-04T16:21:43.068Z,20.10
2023-03-04T16:24:22.210Z,15.90
2023-03-04T16:26:50.272Z,13.10
2023-03-04T16:29:18.758Z,12.00
2023-03-04T16:31:47.441Z,14.90
2023-03-04T16:34:15.816Z,13.50
2023-03-04T16:36:44.764Z,13.90
2023-03-04T16:39:20.073Z,12.40
2023-03-04T16:41:48.121Z,14.20
2023-03-04T16:44:16.503Z,15.90
2023-03-04T16:46:44.959Z,14.20
2023-03-04T16:49:13.571Z,14.30
2023-03-04T16:51:45.734Z,14.50
2023-03-04T16:54:17.386Z,26.20
2023-03-04T16:56:45.443Z,15.60
2023-03-04T16:59:15.636Z,23.70
2023-03-04T17:01:43.948Z,13.70
2023-03-04T17:04:13.157Z,12.80
2023-03-04T17:06:41.740Z,17.20
2023-03-04T17:09:10.119Z,25.70
2023-03-04T17:11:44.232Z,15.50
2023-03-04T17:14:13.947Z,12.90
2023-03-04T17:16:42.322Z,15.40
2023-03-04T17:19:12.748Z,13.90
2023-03-04T17:21:43.075Z,16.50
2023-03-04T17:24:12.170Z,23.70
2023-03-04T17:26:43.114Z,15.10
2023-03-04T17:29:11.906Z,14.80
2023-03-04T17:31:40.238Z,11.10
2023-03-04T17:34:08.974Z,25.10
2023-03-04T17:36:37.350Z,12.80
2023-03-04T17:39:06.253Z,13.30
2023-03-04T17:41:36.141Z,15.00
2023-03-04T17:44:05.959Z,17.00
2023-03-04T17:46:35.829Z,15.20
2023-03-04T17:49:04.035Z,22.50
2023-03-04T17:51:37.973Z,10.70
2023-03-04T17:54:07.788Z,17.20
2023-03-04T17:56:39.422Z,15.00
2023-03-04T17:59:09.456Z,23.00
2023-03-04T18:01:37.849Z,12.10
2023-03-04T18:04:06.669Z,13.70
2023-03-04T18:06:34.762Z,13.30
2023-03-04T18:09:05.733Z,14.10
2023-03-04T18:11:36.780Z,21.50
2023-03-04T18:14:05.249Z,14.80
2023-03-04T18:16:33.545Z,12.10
2023-03-04T18:19:03.132Z,10.60
2023-03-04T18:21:35.708Z,13.60
2023-03-04T18:24:04.914Z,13.30
2023-03-04T18:26:33.177Z,14.60
2023-03-04T18:29:02.693Z,15.60
2023-03-04T18:31:32.736Z,19.70
2023-03-04T18:34:02.027Z,9.70
2023-03-04T18:36:31.001Z,15.20
2023-03-04T18:38:59.765Z,25.20
2023-03-04T18:41:29.308Z,13.00
2023-03-04T18:43:57.546Z,12.00
2023-03-04T18:46:48.640Z,15.40
2023-03-04T18:49:17.474Z,13.10
2023-03-04T18:51:45.863Z,18.80
2023-03-04T18:54:14.653Z,21.90
2023-03-04T18:56:49.083Z,11.90
2023-03-04T18:59:26.430Z,9.50
2023-03-04T19:01:55.365Z,13.10
2023-03-04T19:04:26.488Z,11.30
2023-03-04T19:06:54.868Z,21.90
2023-03-04T19:09:24.047Z,12.90
2023-03-04T19:11:52.344Z,10.10
2023-03-04T19:14:22.462Z,10.50
2023-03-04T19:16:52.045Z,19.10
2023-03-04T19:19:20.551Z,13.80
2023-03-04T19:21:49.442Z,16.80
2023-03-04T19:24:17.618Z,10.00
2023-03-04T19:26:46.051Z,12.40
2023-03-04T19:29:15.405Z,18.00
2023-03-04T19:31:43.877Z,12.10
2023-03-04T19:34:11.956Z,11.10
2023-03-04T19:36:40.435Z,10.00
2023-03-04T19:39:09.464Z,9.90
2023-03-04T19:41:37.816Z,18.50
2023-03-04T19:44:05.988Z,14.30
2023-03-04T19:46:34.881Z,10.70
2023-03-04T19:49:04.787Z,19.00
2023-03-04T19:51:33.369Z,13.00
2023-03-04T19:54:02.259Z,11.80
2023-03-04T19:56:31.149Z,12.00
2023-03-04T19:58:59.941Z,10.60
2023-03-04T20:01:34.763Z,18.80
2023-03-04T20:04:08.984Z,11.80
2023-03-04T20:06:38.795Z,10.60
2023-03-04T20:09:07.706Z,11.40
2023-03-04T20:11:44.087Z,10.00
2023-03-04T20:14:28.288Z,9.10
2023-03-04T20:17:01.871Z,15.40
2023-03-04T20:19:30.602Z,9.10
2023-03-04T20:21:58.764Z,12.80
2023-03-04T20:24:27.148Z,11.40
2023-03-04T20:26:55.830Z,7.70
2023-03-04T20:29:24.409Z,16.10
2023-03-04T20:31:52.766Z,8.50
2023-03-04T20:34:21.062Z,8.80
2023-03-04T20:36:49.210Z,13.10
2023-03-04T20:39:28.737Z,10.50
2023-03-04T20:41:58.267Z,9.40
2023-03-04T20:44:29.744Z,10.90
2023-03-04T20:46:58.935Z,11.10
2023-03-04T20:49:28.070Z,10.70
2023-03-04T20:52:03.161Z,14.10
2023-03-04T20:54:41.175Z,12.70
2023-03-04T20:57:13.033Z,10.70
2023-03-04T20:59:41.717Z,22.90
2023-03-04T21:02:14.549Z,13.30
2023-03-04T21:04:44.064Z,9.40
2023-03-04T21:07:12.895Z,12.70
2023-03-04T21:09:45.179Z,30.50
2023-03-04T21:13:43.352Z,6.10
2023-03-04T21:16:16.982Z,5.50
2023-03-04T21:18:46.048Z,7.50
2023-03-04T21:24:18.857Z,6.20
2023-03-04T21:26:47.868Z,3.50
2023-03-04T21:29:17.356Z,3.10
2023-03-04T21:31:47.994Z,4.60
2023-03-04T21:34:22.012Z,5.00
2023-03-04T21:36:50.355Z,7.40
2023-03-04T21:39:24.705Z,3.80
2023-03-04T21:44:49.617Z,2.10
2023-03-04T21:47:19.774Z,2.60
2023-03-04T21:49:48.210Z,2.00
2023-03-04T21:52:18.190Z,3.30
2023-03-04T21:54:46.570Z,2.70
2023-03-04T21:57:19.529Z,2.40
2023-03-04T21:59:48.445Z,1.90
2023-03-04T22:07:42.230Z,2.80
2023-03-04T22:10:11.731Z,3.20
2023-03-04T22:12:40.110Z,1.00
2023-03-04T22:15:12.534Z,1.70
2023-03-04T22:17:45.986Z,2.90
2023-03-04T22:20:15.861Z,1.80
2023-03-04T22:22:45.514Z,2.50
2023-03-04T22:25:14.401Z,1.00
2023-03-04T22:27:42.816Z,3.00
2023-03-04T22:30:11.779Z,2.70
2023-03-04T22:32:40.574Z,1.40
2023-03-04T22:35:10.013Z,1.50
2023-03-04T22:37:38.355Z,0.90
2023-03-04T22:40:07.399Z,1.20
2023-03-04T22:42:36.716Z,2.20
2023-03-04T22:45:06.103Z,1.10
2023-03-04T22:47:34.636Z,1.00
2023-03-04T22:50:02.910Z,2.50
2023-03-04T22:52:31.282Z,2.70
2023-03-04T22:54:59.557Z,2.10
2023-03-04T22:57:28.171Z,1.70
2023-03-04T22:59:57.442Z,1.40
2023-03-04T23:02:25.779Z,2.60
2023-03-04T23:04:54.215Z,0.30
2023-03-04T23:07:22.882Z,1.60
2023-03-04T23:09:51.015Z,1.10
2023-03-04T23:12:19.114Z,2.80
2023-03-04T23:14:47.198Z,1.70
2023-03-04T23:17:15.475Z,2.60
2023-03-04T23:19:43.750Z,0.80
2023-03-04T23:22:12.124Z,0.70
2023-03-04T23:24:42.352Z,0.30
2023-03-04T23:27:10.834Z,1.50
2023-03-04T23:29:40.989Z,0.50
2023-03-04T23:32:09.504Z,2.30
2023-03-04T23:34:44.218Z,0.60
2023-03-04T23:37:12.750Z,1.30
2023-03-04T23:39:40.931Z,1.20
2023-03-04T23:42:09.315Z,1.30
2023-03-04T23:44:37.577Z,1.80
2023-03-04T23:47:06.002Z,1.80
2023-03-04T23:49:34.774Z,1.00
2023-03-04T23:52:05.890Z,1.30
2023-03-04T23:54:35.093Z,1.60
2023-03-04T23:57:03.460Z,0.90
2023-03-04T23:59:31.647Z,0.60
